sensor_id;sensor_type;location;lat;lon;timestamp;P1;durP1;ratioP1;P2;durP2;ratioP2
5977;SDS011;3015;51.390;12.256;2023-02-08T00:01:50;68.80;;;35.97;;
5977;SDS011;3015;51.390;12.256;2023-02-08T00:04:15;75.87;;;36.47;;
5977;SDS011;3015;51.390;12.256;2023-02-08T00:06:41;69.23;;;35.33;;
5977;SDS011;3015;51.390;12.256;2023-02-08T00:09:07;61.87;;;32.63;;
5977;SDS011;3015;51.390;12.256;2023-02-08T00:11:33;63.30;;;34.17;;
5977;SDS011;3015;51.390;12.256;2023-02-08T00:13:59;66.05;;;32.30;;
5977;SDS011;3015;51.390;12.256;2023-02-08T00:16:24;75.37;;;33.47;;
5977;SDS011;3015;51.390;12.256;2023-02-08T00:18:50;69.50;;;34.63;;
5977;SDS011;3015;51.390;12.256;2023-02-08T00:21:16;79.27;;;35.07;;
5977;SDS011;3015;51.390;12.256;2023-02-08T00:23:42;70.85;;;34.58;;
5977;SDS011;3015;51.390;12.256;2023-02-08T00:26:09;62.77;;;32.90;;
5977;SDS011;3015;51.390;12.256;2023-02-08T00:28:34;71.95;;;34.55;;
5977;SDS011;3015;51.390;12.256;2023-02-08T00:31:00;94.17;;;38.00;;
5977;SDS011;3015;51.390;12.256;2023-02-08T00:33:26;86.27;;;38.17;;
5977;SDS011;3015;51.390;12.256;2023-02-08T00:36:05;64.80;;;32.63;;
5977;SDS011;3015;51.390;12.256;2023-02-08T00:38:32;68.70;;;34.28;;
5977;SDS011;3015;51.390;12.256;2023-02-08T00:40:57;103.73;;;37.80;;
5977;SDS011;3015;51.390;12.256;2023-02-08T00:43:23;73.83;;;35.77;;
5977;SDS011;3015;51.390;12.256;2023-02-08T00:45:52;66.47;;;32.27;;
5977;SDS011;3015;51.390;12.256;2023-02-08T00:48:22;70.57;;;33.00;;
5977;SDS011;3015;51.390;12.256;2023-02-08T00:53:23;53.22;;;29.55;;
5977;SDS011;3015;51.390;12.256;2023-02-08T00:55:50;67.47;;;32.50;;
5977;SDS011;3015;51.390;12.256;2023-02-08T00:58:19;78.47;;;32.45;;
5977;SDS011;3015;51.390;12.256;2023-02-08T01:00:45;49.33;;;28.27;;
5977;SDS011;3015;51.390;12.256;2023-02-08T01:03:10;81.33;;;36.23;;
5977;SDS011;3015;51.390;12.256;2023-02-08T01:05:36;64.97;;;32.27;;
5977;SDS011;3015;51.390;12.256;2023-02-08T01:08:02;61.55;;;32.28;;
5977;SDS011;3015;51.390;12.256;2023-02-08T01:10:28;65.75;;;29.73;;
5977;SDS011;3015;51.390;12.256;2023-02-08T01:12:55;92.80;;;33.45;;
5977;SDS011;3015;51.390;12.256;2023-02-08T01:15:20;73.30;;;30.40;;
5977;SDS011;3015;51.390;12.256;2023-02-08T01:17:46;81.93;;;33.63;;
5977;SDS011;3015;51.390;12.256;2023-02-08T01:20:11;72.37;;;35.20;;
5977;SDS011;3015;51.390;12.256;2023-02-08T01:22:37;78.10;;;34.00;;
5977;SDS011;3015;51.390;12.256;2023-02-08T01:25:02;73.57;;;34.93;;
5977;SDS011;3015;51.390;12.256;2023-02-08T01:27:28;70.73;;;33.97;;
5977;SDS011;3015;51.390;12.256;2023-02-08T01:29:54;79.67;;;33.63;;
5977;SDS011;3015;51.390;12.256;2023-02-08T01:32:19;71.10;;;35.87;;
5977;SDS011;3015;51.390;12.256;2023-02-08T01:34:45;83.03;;;36.07;;
5977;SDS011;3015;51.390;12.256;2023-02-08T01:37:11;69.70;;;32.73;;
5977;SDS011;3015;51.390;12.256;2023-02-08T01:39:37;74.33;;;37.50;;
5977;SDS011;3015;51.390;12.256;2023-02-08T01:42:02;62.77;;;31.00;;
5977;SDS011;3015;51.390;12.256;2023-02-08T01:47:31;62.00;;;33.17;;
5977;SDS011;3015;51.390;12.256;2023-02-08T01:49:57;56.17;;;29.20;;
5977;SDS011;3015;51.390;12.256;2023-02-08T01:52:24;52.53;;;26.10;;
5977;SDS011;3015;51.390;12.256;2023-02-08T01:54:58;60.08;;;30.10;;
5977;SDS011;3015;51.390;12.256;2023-02-08T01:57:27;55.55;;;28.30;;
5977;SDS011;3015;51.390;12.256;2023-02-08T01:59:55;57.55;;;31.95;;
5977;SDS011;3015;51.390;12.256;2023-02-08T02:02:25;50.88;;;29.55;;
5977;SDS011;3015;51.390;12.256;2023-02-08T02:04:53;63.40;;;29.52;;
5977;SDS011;3015;51.390;12.256;2023-02-08T02:07:20;60.47;;;30.90;;
5977;SDS011;3015;51.390;12.256;2023-02-08T02:09:51;53.30;;;30.77;;
5977;SDS011;3015;51.390;12.256;2023-02-08T02:12:38;57.22;;;29.90;;
5977;SDS011;3015;51.390;12.256;2023-02-08T02:15:06;53.72;;;31.48;;
5977;SDS011;3015;51.390;12.256;2023-02-08T02:17:32;55.75;;;31.58;;
5977;SDS011;3015;51.390;12.256;2023-02-08T02:28:17;47.15;;;28.77;;
5977;SDS011;3015;51.390;12.256;2023-02-08T02:33:58;48.42;;;27.65;;
5977;SDS011;3015;51.390;12.256;2023-02-08T02:42:21;47.65;;;28.30;;
5977;SDS011;3015;51.390;12.256;2023-02-08T02:51:50;55.25;;;29.05;;
5977;SDS011;3015;51.390;12.256;2023-02-08T02:54:26;52.53;;;29.38;;
5977;SDS011;3015;51.390;12.256;2023-02-08T02:57:00;53.17;;;28.23;;
5977;SDS011;3015;51.390;12.256;2023-02-08T02:59:31;56.28;;;27.02;;
5977;SDS011;3015;51.390;12.256;2023-02-08T03:02:01;43.97;;;27.17;;
5977;SDS011;3015;51.390;12.256;2023-02-08T03:15:19;53.10;;;26.40;;
5977;SDS011;3015;51.390;12.256;2023-02-08T03:20:49;52.05;;;25.73;;
5977;SDS011;3015;51.390;12.256;2023-02-08T03:23:29;52.78;;;28.45;;
5977;SDS011;3015;51.390;12.256;2023-02-08T03:26:01;51.10;;;26.30;;
5977;SDS011;3015;51.390;12.256;2023-02-08T03:28:40;49.50;;;26.73;;
5977;SDS011;3015;51.390;12.256;2023-02-08T03:31:31;50.97;;;27.00;;
5977;SDS011;3015;51.390;12.256;2023-02-08T03:36:41;47.65;;;25.67;;
5977;SDS011;3015;51.390;12.256;2023-02-08T03:39:12;45.78;;;24.38;;
5977;SDS011;3015;51.390;12.256;2023-02-08T03:41:42;47.33;;;25.80;;
5977;SDS011;3015;51.390;12.256;2023-02-08T03:44:13;47.95;;;24.85;;
5977;SDS011;3015;51.390;12.256;2023-02-08T03:46:49;49.40;;;26.58;;
5977;SDS011;3015;51.390;12.256;2023-02-08T03:49:21;48.00;;;23.58;;
5977;SDS011;3015;51.390;12.256;2023-02-08T03:51:50;45.67;;;25.35;;
5977;SDS011;3015;51.390;12.256;2023-02-08T03:54:21;36.33;;;23.15;;
5977;SDS011;3015;51.390;12.256;2023-02-08T03:56:53;47.67;;;25.65;;
5977;SDS011;3015;51.390;12.256;2023-02-08T03:59:24;46.55;;;24.83;;
5977;SDS011;3015;51.390;12.256;2023-02-08T04:01:57;48.25;;;24.52;;
5977;SDS011;3015;51.390;12.256;2023-02-08T04:04:25;43.70;;;23.85;;
5977;SDS011;3015;51.390;12.256;2023-02-08T04:06:56;50.92;;;25.35;;
5977;SDS011;3015;51.390;12.256;2023-02-08T04:09:22;44.77;;;24.67;;
5977;SDS011;3015;51.390;12.256;2023-02-08T04:11:47;37.97;;;22.30;;
5977;SDS011;3015;51.390;12.256;2023-02-08T04:14:13;44.87;;;24.17;;
5977;SDS011;3015;51.390;12.256;2023-02-08T04:16:38;43.97;;;23.17;;
5977;SDS011;3015;51.390;12.256;2023-02-08T04:19:04;41.53;;;23.07;;
5977;SDS011;3015;51.390;12.256;2023-02-08T04:21:30;38.75;;;23.38;;
5977;SDS011;3015;51.390;12.256;2023-02-08T04:23:56;39.70;;;22.87;;
5977;SDS011;3015;51.390;12.256;2023-02-08T04:26:21;45.30;;;24.07;;
5977;SDS011;3015;51.390;12.256;2023-02-08T04:28:47;41.20;;;22.03;;
5977;SDS011;3015;51.390;12.256;2023-02-08T04:31:12;44.97;;;24.60;;
5977;SDS011;3015;51.390;12.256;2023-02-08T04:33:38;44.57;;;25.20;;
5977;SDS011;3015;51.390;12.256;2023-02-08T04:36:04;50.87;;;23.40;;
5977;SDS011;3015;51.390;12.256;2023-02-08T04:38:30;38.47;;;21.93;;
5977;SDS011;3015;51.390;12.256;2023-02-08T04:40:55;35.80;;;21.80;;
5977;SDS011;3015;51.390;12.256;2023-02-08T04:43:21;41.83;;;23.93;;
5977;SDS011;3015;51.390;12.256;2023-02-08T04:45:48;46.97;;;23.20;;
5977;SDS011;3015;51.390;12.256;2023-02-08T04:48:15;39.85;;;23.70;;
5977;SDS011;3015;51.390;12.256;2023-02-08T04:50:41;45.88;;;23.15;;
5977;SDS011;3015;51.390;12.256;2023-02-08T04:53:07;43.47;;;22.77;;
5977;SDS011;3015;51.390;12.256;2023-02-08T04:55:32;42.17;;;22.97;;
5977;SDS011;3015;51.390;12.256;2023-02-08T04:57:58;42.77;;;24.73;;
5977;SDS011;3015;51.390;12.256;2023-02-08T05:00:24;42.23;;;23.73;;
5977;SDS011;3015;51.390;12.256;2023-02-08T05:02:53;41.70;;;23.73;;
5977;SDS011;3015;51.390;12.256;2023-02-08T05:05:19;44.40;;;24.45;;
5977;SDS011;3015;51.390;12.256;2023-02-08T05:07:45;43.88;;;23.73;;
5977;SDS011;3015;51.390;12.256;2023-02-08T05:10:11;38.17;;;22.33;;
5977;SDS011;3015;51.390;12.256;2023-02-08T05:12:36;49.97;;;22.33;;
5977;SDS011;3015;51.390;12.256;2023-02-08T05:15:02;40.43;;;23.40;;
5977;SDS011;3015;51.390;12.256;2023-02-08T05:17:28;40.33;;;23.13;;
5977;SDS011;3015;51.390;12.256;2023-02-08T05:19:54;43.17;;;22.50;;
5977;SDS011;3015;51.390;12.256;2023-02-08T05:22:20;41.80;;;21.13;;
5977;SDS011;3015;51.390;12.256;2023-02-08T05:24:45;41.17;;;22.27;;
5977;SDS011;3015;51.390;12.256;2023-02-08T05:27:11;44.70;;;22.97;;
5977;SDS011;3015;51.390;12.256;2023-02-08T05:29:36;50.10;;;24.47;;
5977;SDS011;3015;51.390;12.256;2023-02-08T05:32:02;39.57;;;21.37;;
5977;SDS011;3015;51.390;12.256;2023-02-08T05:34:28;33.27;;;21.10;;
5977;SDS011;3015;51.390;12.256;2023-02-08T05:36:53;40.30;;;22.40;;
5977;SDS011;3015;51.390;12.256;2023-02-08T05:39:19;43.53;;;23.23;;
5977;SDS011;3015;51.390;12.256;2023-02-08T05:41:44;38.60;;;19.80;;
5977;SDS011;3015;51.390;12.256;2023-02-08T05:44:10;36.70;;;22.53;;
5977;SDS011;3015;51.390;12.256;2023-02-08T05:46:36;45.10;;;23.23;;
5977;SDS011;3015;51.390;12.256;2023-02-08T05:49:01;46.73;;;23.90;;
5977;SDS011;3015;51.390;12.256;2023-02-08T05:51:27;43.40;;;22.37;;
5977;SDS011;3015;51.390;12.256;2023-02-08T05:53:53;46.07;;;21.63;;
5977;SDS011;3015;51.390;12.256;2023-02-08T05:56:18;41.57;;;21.47;;
5977;SDS011;3015;51.390;12.256;2023-02-08T05:58:44;34.33;;;19.60;;
5977;SDS011;3015;51.390;12.256;2023-02-08T06:01:10;45.13;;;22.03;;
5977;SDS011;3015;51.390;12.256;2023-02-08T06:03:36;38.05;;;20.63;;
5977;SDS011;3015;51.390;12.256;2023-02-08T06:06:02;40.38;;;23.45;;
5977;SDS011;3015;51.390;12.256;2023-02-08T06:08:28;41.87;;;22.40;;
5977;SDS011;3015;51.390;12.256;2023-02-08T06:10:54;47.07;;;25.43;;
5977;SDS011;3015;51.390;12.256;2023-02-08T06:13:19;56.40;;;24.40;;
5977;SDS011;3015;51.390;12.256;2023-02-08T06:15:45;37.30;;;22.80;;
5977;SDS011;3015;51.390;12.256;2023-02-08T06:18:11;35.30;;;20.73;;
5977;SDS011;3015;51.390;12.256;2023-02-08T06:20:37;47.92;;;22.50;;
5977;SDS011;3015;51.390;12.256;2023-02-08T06:23:02;48.60;;;23.63;;
5977;SDS011;3015;51.390;12.256;2023-02-08T06:25:28;42.20;;;22.77;;
5977;SDS011;3015;51.390;12.256;2023-02-08T06:27:54;46.90;;;23.30;;
5977;SDS011;3015;51.390;12.256;2023-02-08T06:30:19;43.27;;;22.40;;
5977;SDS011;3015;51.390;12.256;2023-02-08T06:32:45;39.60;;;20.30;;
5977;SDS011;3015;51.390;12.256;2023-02-08T06:35:11;56.57;;;31.70;;
5977;SDS011;3015;51.390;12.256;2023-02-08T06:37:36;48.63;;;27.13;;
5977;SDS011;3015;51.390;12.256;2023-02-08T06:40:03;42.23;;;23.20;;
5977;SDS011;3015;51.390;12.256;2023-02-08T06:42:29;39.30;;;22.33;;
5977;SDS011;3015;51.390;12.256;2023-02-08T06:44:55;37.60;;;22.50;;
5977;SDS011;3015;51.390;12.256;2023-02-08T06:47:22;42.88;;;20.48;;
5977;SDS011;3015;51.390;12.256;2023-02-08T06:49:48;43.70;;;22.92;;
5977;SDS011;3015;51.390;12.256;2023-02-08T06:52:14;42.50;;;23.70;;
5977;SDS011;3015;51.390;12.256;2023-02-08T06:54:40;43.80;;;23.27;;
5977;SDS011;3015;51.390;12.256;2023-02-08T06:57:05;45.30;;;22.83;;
5977;SDS011;3015;51.390;12.256;2023-02-08T06:59:32;42.72;;;21.15;;
5977;SDS011;3015;51.390;12.256;2023-02-08T07:01:58;50.63;;;23.50;;
5977;SDS011;3015;51.390;12.256;2023-02-08T07:04:23;40.30;;;21.90;;
5977;SDS011;3015;51.390;12.256;2023-02-08T07:06:49;36.13;;;21.10;;
5977;SDS011;3015;51.390;12.256;2023-02-08T07:09:15;40.10;;;22.80;;
5977;SDS011;3015;51.390;12.256;2023-02-08T07:11:41;43.55;;;22.67;;
5977;SDS011;3015;51.390;12.256;2023-02-08T07:14:09;41.70;;;23.30;;
5977;SDS011;3015;51.390;12.256;2023-02-08T07:16:36;39.10;;;24.00;;
5977;SDS011;3015;51.390;12.256;2023-02-08T07:19:02;37.77;;;22.07;;
5977;SDS011;3015;51.390;12.256;2023-02-08T07:21:27;36.43;;;25.20;;
5977;SDS011;3015;51.390;12.256;2023-02-08T07:23:53;53.73;;;27.20;;
5977;SDS011;3015;51.390;12.256;2023-02-08T07:26:18;44.80;;;21.87;;
5977;SDS011;3015;51.390;12.256;2023-02-08T07:28:44;35.47;;;22.70;;
5977;SDS011;3015;51.390;12.256;2023-02-08T07:31:14;41.87;;;23.87;;
5977;SDS011;3015;51.390;12.256;2023-02-08T07:33:41;54.53;;;28.30;;
5977;SDS011;3015;51.390;12.256;2023-02-08T07:36:08;53.22;;;26.98;;
5977;SDS011;3015;51.390;12.256;2023-02-08T07:38:35;43.67;;;26.60;;
5977;SDS011;3015;51.390;12.256;2023-02-08T07:41:05;42.17;;;23.67;;
5977;SDS011;3015;51.390;12.256;2023-02-08T07:43:34;41.05;;;24.17;;
5977;SDS011;3015;51.390;12.256;2023-02-08T07:48:32;39.58;;;26.77;;
5977;SDS011;3015;51.390;12.256;2023-02-08T07:50:58;48.83;;;27.10;;
5977;SDS011;3015;51.390;12.256;2023-02-08T07:53:24;49.33;;;25.43;;
5977;SDS011;3015;51.390;12.256;2023-02-08T07:55:49;49.50;;;28.33;;
5977;SDS011;3015;51.390;12.256;2023-02-08T07:58:15;44.73;;;26.47;;
5977;SDS011;3015;51.390;12.256;2023-02-08T08:00:40;46.30;;;27.90;;
5977;SDS011;3015;51.390;12.256;2023-02-08T08:03:06;48.80;;;26.37;;
5977;SDS011;3015;51.390;12.256;2023-02-08T08:05:32;46.17;;;25.33;;
5977;SDS011;3015;51.390;12.256;2023-02-08T08:07:57;47.07;;;27.43;;
5977;SDS011;3015;51.390;12.256;2023-02-08T08:10:23;50.27;;;26.67;;
5977;SDS011;3015;51.390;12.256;2023-02-08T08:12:48;49.67;;;27.40;;
5977;SDS011;3015;51.390;12.256;2023-02-08T08:15:14;53.53;;;27.80;;
5977;SDS011;3015;51.390;12.256;2023-02-08T08:17:40;46.33;;;29.50;;
5977;SDS011;3015;51.390;12.256;2023-02-08T08:20:07;50.40;;;26.60;;
5977;SDS011;3015;51.390;12.256;2023-02-08T08:22:35;47.90;;;29.05;;
5977;SDS011;3015;51.390;12.256;2023-02-08T08:25:01;45.43;;;27.70;;
5977;SDS011;3015;51.390;12.256;2023-02-08T08:27:27;53.37;;;30.60;;
5977;SDS011;3015;51.390;12.256;2023-02-08T08:29:53;53.40;;;28.80;;
5977;SDS011;3015;51.390;12.256;2023-02-08T08:32:18;52.10;;;28.70;;
5977;SDS011;3015;51.390;12.256;2023-02-08T08:34:44;48.97;;;27.53;;
5977;SDS011;3015;51.390;12.256;2023-02-08T08:37:10;45.93;;;24.60;;
5977;SDS011;3015;51.390;12.256;2023-02-08T08:39:35;37.13;;;25.20;;
5977;SDS011;3015;51.390;12.256;2023-02-08T08:42:01;41.90;;;25.43;;
5977;SDS011;3015;51.390;12.256;2023-02-08T08:44:30;39.70;;;27.23;;
5977;SDS011;3015;51.390;12.256;2023-02-08T08:46:56;39.83;;;25.17;;
5977;SDS011;3015;51.390;12.256;2023-02-08T08:49:23;36.50;;;26.15;;
5977;SDS011;3015;51.390;12.256;2023-02-08T08:51:49;38.35;;;25.38;;
5977;SDS011;3015;51.390;12.256;2023-02-08T08:54:15;37.60;;;27.60;;
5977;SDS011;3015;51.390;12.256;2023-02-08T08:56:41;36.05;;;26.85;;
5977;SDS011;3015;51.390;12.256;2023-02-08T08:59:07;39.50;;;28.33;;
5977;SDS011;3015;51.390;12.256;2023-02-08T09:01:33;38.70;;;27.90;;
5977;SDS011;3015;51.390;12.256;2023-02-08T09:03:59;38.65;;;27.35;;
5977;SDS011;3015;51.390;12.256;2023-02-08T09:06:24;43.07;;;29.43;;
5977;SDS011;3015;51.390;12.256;2023-02-08T09:08:50;42.77;;;29.53;;
5977;SDS011;3015;51.390;12.256;2023-02-08T09:11:16;34.57;;;21.93;;
5977;SDS011;3015;51.390;12.256;2023-02-08T09:13:42;35.50;;;27.20;;
5977;SDS011;3015;51.390;12.256;2023-02-08T09:16:09;44.47;;;30.20;;
5977;SDS011;3015;51.390;12.256;2023-02-08T09:18:37;37.88;;;27.63;;
5977;SDS011;3015;51.390;12.256;2023-02-08T09:21:14;41.10;;;29.70;;
5977;SDS011;3015;51.390;12.256;2023-02-08T09:23:40;35.72;;;27.67;;
5977;SDS011;3015;51.390;12.256;2023-02-08T09:26:08;39.20;;;29.17;;
5977;SDS011;3015;51.390;12.256;2023-02-08T09:28:36;40.97;;;29.23;;
5977;SDS011;3015;51.390;12.256;2023-02-08T09:33:42;41.00;;;30.60;;
5977;SDS011;3015;51.390;12.256;2023-02-08T09:36:07;44.53;;;32.43;;
5977;SDS011;3015;51.390;12.256;2023-02-08T09:38:33;41.53;;;28.85;;
5977;SDS011;3015;51.390;12.256;2023-02-08T09:43:40;40.13;;;31.05;;
5977;SDS011;3015;51.390;12.256;2023-02-08T09:46:27;41.15;;;31.55;;
5977;SDS011;3015;51.390;12.256;2023-02-08T09:48:57;40.58;;;29.98;;
5977;SDS011;3015;51.390;12.256;2023-02-08T09:51:36;41.72;;;30.95;;
5977;SDS011;3015;51.390;12.256;2023-02-08T09:54:06;47.75;;;32.20;;
5977;SDS011;3015;51.390;12.256;2023-02-08T09:56:39;41.35;;;31.98;;
5977;SDS011;3015;51.390;12.256;2023-02-08T09:59:11;44.33;;;29.92;;
5977;SDS011;3015;51.390;12.256;2023-02-08T10:01:40;44.25;;;32.72;;
5977;SDS011;3015;51.390;12.256;2023-02-08T10:04:08;42.73;;;29.70;;
5977;SDS011;3015;51.390;12.256;2023-02-08T10:06:50;41.05;;;29.20;;
5977;SDS011;3015;51.390;12.256;2023-02-08T10:09:17;43.17;;;31.80;;
5977;SDS011;3015;51.390;12.256;2023-02-08T10:23:02;41.22;;;31.02;;
5977;SDS011;3015;51.390;12.256;2023-02-08T10:25:55;41.13;;;30.30;;
5977;SDS011;3015;51.390;12.256;2023-02-08T10:34:01;39.42;;;30.75;;
5977;SDS011;3015;51.390;12.256;2023-02-08T10:36:45;40.83;;;27.98;;
5977;SDS011;3015;51.390;12.256;2023-02-08T10:39:13;39.10;;;28.90;;
5977;SDS011;3015;51.390;12.256;2023-02-08T10:41:40;37.05;;;29.90;;
5977;SDS011;3015;51.390;12.256;2023-02-08T10:44:20;44.13;;;31.17;;
5977;SDS011;3015;51.390;12.256;2023-02-08T10:46:56;37.70;;;30.27;;
5977;SDS011;3015;51.390;12.256;2023-02-08T10:49:52;42.08;;;32.13;;
5977;SDS011;3015;51.390;12.256;2023-02-08T10:52:23;34.53;;;24.73;;
5977;SDS011;3015;51.390;12.256;2023-02-08T10:54:49;38.40;;;28.83;;
5977;SDS011;3015;51.390;12.256;2023-02-08T10:57:22;36.53;;;29.73;;
5977;SDS011;3015;51.390;12.256;2023-02-08T10:59:58;36.97;;;27.55;;
5977;SDS011;3015;51.390;12.256;2023-02-08T11:02:32;36.55;;;29.58;;
5977;SDS011;3015;51.390;12.256;2023-02-08T11:05:03;38.28;;;28.38;;
5977;SDS011;3015;51.390;12.256;2023-02-08T11:07:31;37.25;;;28.67;;
5977;SDS011;3015;51.390;12.256;2023-02-08T11:10:14;38.95;;;29.00;;
5977;SDS011;3015;51.390;12.256;2023-02-08T11:15:47;34.22;;;26.42;;
5977;SDS011;3015;51.390;12.256;2023-02-08T11:20:49;33.47;;;25.35;;
5977;SDS011;3015;51.390;12.256;2023-02-08T11:23:31;35.30;;;26.15;;
5977;SDS011;3015;51.390;12.256;2023-02-08T11:26:19;37.28;;;30.40;;
5977;SDS011;3015;51.390;12.256;2023-02-08T11:31:37;35.30;;;28.42;;
5977;SDS011;3015;51.390;12.256;2023-02-08T11:34:06;33.55;;;27.38;;
5977;SDS011;3015;51.390;12.256;2023-02-08T11:36:35;36.70;;;30.65;;
5977;SDS011;3015;51.390;12.256;2023-02-08T11:39:13;31.65;;;28.20;;
5977;SDS011;3015;51.390;12.256;2023-02-08T11:41:42;35.47;;;28.95;;
5977;SDS011;3015;51.390;12.256;2023-02-08T11:44:10;39.97;;;32.47;;
5977;SDS011;3015;51.390;12.256;2023-02-08T11:46:43;31.65;;;27.98;;
5977;SDS011;3015;51.390;12.256;2023-02-08T11:49:58;38.70;;;29.52;;
5977;SDS011;3015;51.390;12.256;2023-02-08T11:52:00;35.30;;;28.48;;
5977;SDS011;3015;51.390;12.256;2023-02-08T11:54:39;37.90;;;29.90;;
5977;SDS011;3015;51.390;12.256;2023-02-08T11:57:13;36.42;;;28.27;;
5977;SDS011;3015;51.390;12.256;2023-02-08T11:59:43;39.72;;;29.42;;
5977;SDS011;3015;51.390;12.256;2023-02-08T12:05:00;36.55;;;29.90;;
5977;SDS011;3015;51.390;12.256;2023-02-08T12:10:27;30.20;;;26.92;;
5977;SDS011;3015;51.390;12.256;2023-02-08T12:18:51;29.05;;;25.95;;
5977;SDS011;3015;51.390;12.256;2023-02-08T12:21:33;35.40;;;27.83;;
5977;SDS011;3015;51.390;12.256;2023-02-08T12:27:19;29.42;;;23.63;;
5977;SDS011;3015;51.390;12.256;2023-02-08T12:29:57;28.08;;;24.88;;
5977;SDS011;3015;51.390;12.256;2023-02-08T12:37:54;27.30;;;24.50;;
5977;SDS011;3015;51.390;12.256;2023-02-08T12:41:04;27.48;;;24.55;;
5977;SDS011;3015;51.390;12.256;2023-02-08T12:49:27;27.90;;;25.00;;
5977;SDS011;3015;51.390;12.256;2023-02-08T12:54:56;25.93;;;23.33;;
5977;SDS011;3015;51.390;12.256;2023-02-08T12:57:43;26.70;;;23.83;;
5977;SDS011;3015;51.390;12.256;2023-02-08T13:00:21;24.67;;;22.30;;
5977;SDS011;3015;51.390;12.256;2023-02-08T13:05:39;23.87;;;21.30;;
5977;SDS011;3015;51.390;12.256;2023-02-08T13:08:20;22.67;;;20.27;;
5977;SDS011;3015;51.390;12.256;2023-02-08T13:11:03;24.93;;;19.80;;
5977;SDS011;3015;51.390;12.256;2023-02-08T13:13:35;20.93;;;18.67;;
5977;SDS011;3015;51.390;12.256;2023-02-08T13:16:09;21.07;;;19.03;;
5977;SDS011;3015;51.390;12.256;2023-02-08T13:21:42;20.47;;;17.90;;
5977;SDS011;3015;51.390;12.256;2023-02-08T13:24:24;20.50;;;18.33;;
5977;SDS011;3015;51.390;12.256;2023-02-08T13:26:50;20.83;;;18.73;;
5977;SDS011;3015;51.390;12.256;2023-02-08T13:29:17;23.00;;;18.40;;
5977;SDS011;3015;51.390;12.256;2023-02-08T13:31:46;21.05;;;18.73;;
5977;SDS011;3015;51.390;12.256;2023-02-08T13:37:05;21.80;;;18.45;;
5977;SDS011;3015;51.390;12.256;2023-02-08T13:39:42;22.63;;;19.27;;
5977;SDS011;3015;51.390;12.256;2023-02-08T13:44:54;24.25;;;21.70;;
5977;SDS011;3015;51.390;12.256;2023-02-08T13:47:25;24.87;;;22.00;;
5977;SDS011;3015;51.390;12.256;2023-02-08T13:52:51;22.33;;;20.02;;
5977;SDS011;3015;51.390;12.256;2023-02-08T14:00:32;26.13;;;23.35;;
5977;SDS011;3015;51.390;12.256;2023-02-08T14:03:21;25.45;;;22.83;;
5977;SDS011;3015;51.390;12.256;2023-02-08T14:05:53;27.42;;;24.55;;
5977;SDS011;3015;51.390;12.256;2023-02-08T14:13:47;31.45;;;25.95;;
5977;SDS011;3015;51.390;12.256;2023-02-08T14:18:50;33.00;;;24.53;;
5977;SDS011;3015;51.390;12.256;2023-02-08T14:21:42;29.00;;;24.33;;
5977;SDS011;3015;51.390;12.256;2023-02-08T14:24:08;32.35;;;26.63;;
5977;SDS011;3015;51.390;12.256;2023-02-08T14:26:48;29.92;;;24.13;;
5977;SDS011;3015;51.390;12.256;2023-02-08T14:29:21;31.50;;;25.73;;
5977;SDS011;3015;51.390;12.256;2023-02-08T14:31:51;30.95;;;26.13;;
5977;SDS011;3015;51.390;12.256;2023-02-08T14:37:02;29.67;;;26.48;;
5977;SDS011;3015;51.390;12.256;2023-02-08T14:39:44;32.03;;;26.05;;
5977;SDS011;3015;51.390;12.256;2023-02-08T14:42:14;32.13;;;24.85;;
5977;SDS011;3015;51.390;12.256;2023-02-08T14:45:29;30.17;;;25.23;;
5977;SDS011;3015;51.390;12.256;2023-02-08T14:47:59;24.83;;;22.17;;
5977;SDS011;3015;51.390;12.256;2023-02-08T14:50:52;31.88;;;25.25;;
5977;SDS011;3015;51.390;12.256;2023-02-08T14:53:42;29.40;;;24.63;;
5977;SDS011;3015;51.390;12.256;2023-02-08T14:56:32;30.65;;;26.00;;
5977;SDS011;3015;51.390;12.256;2023-02-08T14:59:08;29.98;;;24.23;;
5977;SDS011;3015;51.390;12.256;2023-02-08T15:01:42;31.00;;;25.00;;
5977;SDS011;3015;51.390;12.256;2023-02-08T15:04:13;30.33;;;27.13;;
5977;SDS011;3015;51.390;12.256;2023-02-08T15:09:23;30.05;;;24.92;;
5977;SDS011;3015;51.390;12.256;2023-02-08T15:14:22;28.67;;;23.20;;
5977;SDS011;3015;51.390;12.256;2023-02-08T15:16:48;27.73;;;22.27;;
5977;SDS011;3015;51.390;12.256;2023-02-08T15:19:48;31.25;;;25.25;;
5977;SDS011;3015;51.390;12.256;2023-02-08T15:22:26;31.55;;;25.05;;
5977;SDS011;3015;51.390;12.256;2023-02-08T15:24:57;34.28;;;25.67;;
5977;SDS011;3015;51.390;12.256;2023-02-08T15:27:29;34.30;;;26.92;;
5977;SDS011;3015;51.390;12.256;2023-02-08T15:29:57;37.38;;;28.17;;
5977;SDS011;3015;51.390;12.256;2023-02-08T15:32:24;33.25;;;24.38;;
5977;SDS011;3015;51.390;12.256;2023-02-08T15:34:56;34.60;;;26.27;;
5977;SDS011;3015;51.390;12.256;2023-02-08T15:37:23;35.40;;;25.13;;
5977;SDS011;3015;51.390;12.256;2023-02-08T15:39:51;35.53;;;26.40;;
5977;SDS011;3015;51.390;12.256;2023-02-08T15:42:21;39.88;;;26.98;;
5977;SDS011;3015;51.390;12.256;2023-02-08T15:44:49;36.85;;;27.23;;
5977;SDS011;3015;51.390;12.256;2023-02-08T15:47:21;36.10;;;26.48;;
5977;SDS011;3015;51.390;12.256;2023-02-08T15:49:52;37.08;;;27.45;;
5977;SDS011;3015;51.390;12.256;2023-02-08T15:52:21;40.38;;;27.58;;
5977;SDS011;3015;51.390;12.256;2023-02-08T15:54:49;37.00;;;27.85;;
5977;SDS011;3015;51.390;12.256;2023-02-08T15:57:33;37.50;;;26.48;;
5977;SDS011;3015;51.390;12.256;2023-02-08T16:00:03;44.28;;;28.75;;
5977;SDS011;3015;51.390;12.256;2023-02-08T16:02:36;37.88;;;29.73;;
5977;SDS011;3015;51.390;12.256;2023-02-08T16:05:10;35.77;;;26.47;;
5977;SDS011;3015;51.390;12.256;2023-02-08T16:07:43;39.70;;;27.02;;
5977;SDS011;3015;51.390;12.256;2023-02-08T16:10:20;33.92;;;25.27;;
5977;SDS011;3015;51.390;12.256;2023-02-08T16:12:58;34.50;;;25.40;;
5977;SDS011;3015;51.390;12.256;2023-02-08T16:17:58;38.13;;;24.58;;
5977;SDS011;3015;51.390;12.256;2023-02-08T16:20:25;34.37;;;25.50;;
5977;SDS011;3015;51.390;12.256;2023-02-08T16:22:57;32.63;;;25.40;;
5977;SDS011;3015;51.390;12.256;2023-02-08T16:25:42;38.25;;;26.98;;
5977;SDS011;3015;51.390;12.256;2023-02-08T16:28:23;42.88;;;26.85;;
5977;SDS011;3015;51.390;12.256;2023-02-08T16:30:58;40.05;;;27.92;;
5977;SDS011;3015;51.390;12.256;2023-02-08T16:33:26;49.35;;;31.45;;
5977;SDS011;3015;51.390;12.256;2023-02-08T16:35:52;49.35;;;30.38;;
5977;SDS011;3015;51.390;12.256;2023-02-08T16:38:25;41.35;;;29.50;;
5977;SDS011;3015;51.390;12.256;2023-02-08T16:40:54;41.97;;;28.42;;
5977;SDS011;3015;51.390;12.256;2023-02-08T16:43:26;44.17;;;29.65;;
5977;SDS011;3015;51.390;12.256;2023-02-08T16:48:44;41.83;;;30.45;;
5977;SDS011;3015;51.390;12.256;2023-02-08T16:51:13;43.20;;;30.10;;
5977;SDS011;3015;51.390;12.256;2023-02-08T16:53:48;43.33;;;30.45;;
5977;SDS011;3015;51.390;12.256;2023-02-08T16:56:16;45.92;;;28.73;;
5977;SDS011;3015;51.390;12.256;2023-02-08T16:58:41;44.67;;;29.33;;
5977;SDS011;3015;51.390;12.256;2023-02-08T17:01:09;44.60;;;27.90;;
5977;SDS011;3015;51.390;12.256;2023-02-08T17:03:37;46.42;;;31.92;;
5977;SDS011;3015;51.390;12.256;2023-02-08T17:06:03;39.23;;;28.00;;
5977;SDS011;3015;51.390;12.256;2023-02-08T17:08:29;44.22;;;29.17;;
5977;SDS011;3015;51.390;12.256;2023-02-08T17:10:56;42.78;;;29.75;;
5977;SDS011;3015;51.390;12.256;2023-02-08T17:13:22;38.47;;;27.27;;
5977;SDS011;3015;51.390;12.256;2023-02-08T17:15:51;43.83;;;27.70;;
5977;SDS011;3015;51.390;12.256;2023-02-08T17:18:17;39.95;;;27.65;;